createdAt,value
2024-01-08T00:00:11.343Z,33.11
2024-01-08T00:02:39.365Z,33.45
2024-01-08T00:05:07.768Z,32.95
2024-01-08T00:07:35.802Z,32.39
2024-01-08T00:10:03.881Z,32.61
2024-01-08T00:12:34.765Z,32.51
2024-01-08T00:15:04.581Z,32.33
2024-01-08T00:17:32.786Z,32.22
2024-01-08T00:20:03.603Z,32.01
2024-01-08T00:22:34.428Z,31.95
2024-01-08T00:25:02.488Z,32.22
2024-01-08T00:27:30.483Z,32.14
2024-01-08T00:29:58.411Z,32.14
2024-01-08T00:32:28.165Z,31.84
2024-01-08T00:34:56.569Z,31.85
2024-01-08T00:37:27.533Z,31.92
2024-01-08T00:39:55.528Z,32.18
2024-01-08T00:42:23.517Z,31.92
2024-01-08T00:44:51.684Z,31.79
2024-01-08T00:47:22.209Z,31.79
2024-01-08T00:49:51.763Z,31.82
2024-01-08T00:52:21.199Z,31.67
2024-01-08T00:54:51.723Z,31.60
2024-01-08T00:57:19.698Z,31.53
2024-01-08T00:59:47.765Z,31.43
2024-01-08T01:02:15.848Z,31.42
2024-01-08T01:04:44.056Z,31.27
2024-01-08T01:07:13.661Z,31.48
2024-01-08T01:09:41.650Z,31.55
2024-01-08T01:12:09.657Z,31.32
2024-01-08T01:14:37.912Z,31.43
2024-01-08T01:17:06.108Z,31.32
2024-01-08T01:19:34.548Z,31.44
2024-01-08T01:22:02.587Z,31.31
2024-01-08T01:24:34.693Z,31.24
2024-01-08T01:27:02.792Z,31.12
2024-01-08T01:29:30.946Z,31.07
2024-01-08T01:31:59.017Z,31.13
2024-01-08T01:34:27.403Z,31.02
2024-01-08T01:36:55.378Z,30.98
2024-01-08T01:39:23.456Z,30.89
2024-01-08T01:41:54.529Z,30.82
2024-01-08T01:44:23.201Z,30.95
2024-01-08T01:46:53.008Z,31.17
2024-01-08T01:49:23.364Z,30.90
2024-01-08T01:51:52.897Z,30.71
2024-01-08T01:54:24.047Z,30.83
2024-01-08T01:56:55.673Z,30.48
2024-01-08T01:59:25.381Z,30.60
2024-01-08T02:01:53.845Z,30.63
2024-01-08T02:04:24.262Z,30.81
2024-01-08T02:06:53.580Z,30.55
2024-01-08T02:09:21.664Z,30.72
2024-01-08T02:11:49.621Z,30.75
2024-01-08T02:14:18.987Z,30.62
2024-01-08T02:16:47.181Z,30.52
2024-01-08T02:19:17.644Z,30.50
2024-01-08T02:21:45.783Z,30.64
2024-01-08T02:24:15.813Z,30.37
2024-01-08T02:26:48.415Z,30.42
2024-01-08T02:29:16.960Z,30.42
2024-01-08T02:31:44.909Z,30.59
2024-01-08T02:34:15.550Z,30.58
2024-01-08T02:36:43.567Z,30.45
2024-01-08T02:39:11.571Z,30.33
2024-01-08T02:41:40.968Z,30.46
2024-01-08T02:44:09.035Z,30.59
2024-01-08T02:46:37.066Z,30.22
2024-01-08T02:49:05.078Z,30.32
2024-01-08T02:51:33.113Z,30.39
2024-01-08T02:54:01.065Z,30.43
2024-01-08T02:56:29.392Z,30.32
2024-01-08T02:58:58.928Z,30.23
2024-01-08T03:01:27.640Z,30.30
2024-01-08T03:03:55.750Z,30.27
2024-01-08T03:06:23.888Z,30.39
2024-01-08T03:08:55.317Z,29.92
2024-01-08T03:11:23.426Z,30.07
2024-01-08T03:13:51.464Z,30.10
2024-01-08T03:16:20.868Z,30.16
2024-01-08T03:18:49.022Z,30.23
2024-01-08T03:21:19.208Z,30.02
2024-01-08T03:23:47.225Z,30.14
2024-01-08T03:26:15.412Z,30.11
2024-01-08T03:28:43.409Z,30.25
2024-01-08T03:31:11.379Z,30.18
2024-01-08T03:33:40.763Z,30.16
2024-01-08T03:36:11.715Z,29.97
2024-01-08T03:38:39.733Z,30.16
2024-01-08T03:41:10.699Z,29.96
2024-01-08T03:43:38.716Z,29.89
2024-01-08T03:46:06.832Z,29.93
2024-01-08T03:48:34.770Z,30.18
2024-01-08T03:51:04.191Z,29.79
2024-01-08T03:53:32.337Z,30.05
2024-01-08T03:56:00.431Z,30.07
2024-01-08T03:58:28.460Z,30.09
2024-01-08T04:00:56.478Z,29.82
2024-01-08T04:03:24.678Z,30.04
2024-01-08T04:05:52.964Z,29.93
2024-01-08T04:08:22.669Z,29.74
2024-01-08T04:10:50.754Z,29.71
2024-01-08T04:13:18.757Z,30.10
2024-01-08T04:15:46.873Z,29.99
2024-01-08T04:18:16.451Z,30.06
2024-01-08T04:20:47.245Z,29.87
2024-01-08T04:23:17.532Z,29.78
2024-01-08T04:25:46.882Z,29.91
2024-01-08T04:28:14.921Z,29.98
2024-01-08T04:30:43.001Z,29.82
2024-01-08T04:33:12.506Z,30.11
2024-01-08T04:35:40.554Z,29.83
2024-01-08T04:38:08.558Z,29.80
2024-01-08T04:40:36.647Z,30.10
2024-01-08T04:43:08.509Z,30.03
2024-01-08T04:45:36.658Z,29.96
2024-01-08T04:48:05.786Z,30.06
2024-01-08T04:50:33.798Z,30.06
2024-01-08T04:53:01.857Z,29.93
2024-01-08T04:55:29.849Z,29.92
2024-01-08T04:58:00.604Z,29.91
2024-01-08T05:00:30.874Z,29.99
2024-01-08T05:02:59.035Z,30.10
2024-01-08T05:05:27.090Z,30.04
2024-01-08T05:07:55.379Z,29.95
2024-01-08T05:10:23.343Z,29.97
2024-01-08T05:12:51.419Z,30.00
2024-01-08T05:15:19.422Z,30.07
2024-01-08T05:17:48.890Z,29.94
2024-01-08T05:20:17.096Z,30.05
2024-01-08T05:22:45.164Z,30.09
2024-01-08T05:25:13.086Z,30.18
2024-01-08T05:27:43.371Z,30.07
2024-01-08T05:30:12.345Z,30.13
2024-01-08T05:32:40.518Z,30.05
2024-01-08T05:35:10.492Z,30.25
2024-01-08T05:37:38.503Z,30.25
2024-01-08T05:40:07.759Z,29.98
2024-01-08T05:42:38.739Z,29.97
2024-01-08T05:45:08.661Z,29.97
2024-01-08T05:47:37.003Z,30.04
2024-01-08T05:50:05.917Z,30.08
2024-01-08T05:52:35.342Z,30.11
2024-01-08T05:55:03.320Z,30.01
2024-01-08T05:57:34.084Z,30.23
2024-01-08T06:00:02.067Z,30.01
2024-01-08T06:02:30.003Z,30.23
2024-01-08T06:04:57.994Z,29.97
2024-01-08T06:07:26.006Z,29.99
2024-01-08T06:09:57.968Z,30.26
2024-01-08T06:12:26.069Z,30.05
2024-01-08T06:14:56.912Z,30.11
2024-01-08T06:17:24.946Z,30.07
2024-01-08T06:19:55.620Z,30.12
2024-01-08T06:22:23.696Z,30.11
2024-01-08T06:24:51.862Z,30.07
2024-01-08T06:27:21.169Z,29.96
2024-01-08T06:29:50.401Z,30.11
2024-01-08T06:32:18.491Z,30.07
2024-01-08T06:34:46.489Z,30.04
2024-01-08T06:37:14.472Z,30.29
2024-01-08T06:39:42.458Z,29.94
2024-01-08T06:42:12.730Z,29.96
2024-01-08T06:44:42.187Z,29.93
2024-01-08T06:47:10.251Z,30.09
2024-01-08T06:49:40.925Z,30.09
2024-01-08T06:52:09.688Z,30.04
2024-01-08T06:54:38.588Z,30.09
2024-01-08T06:57:06.976Z,30.04
2024-01-08T06:59:35.086Z,30.07
2024-01-08T07:02:04.900Z,29.94
2024-01-08T07:04:32.909Z,30.01
2024-01-08T07:07:00.937Z,30.00
2024-01-08T07:09:28.949Z,30.51
2024-01-08T07:11:56.983Z,30.28
2024-01-08T07:14:25.022Z,30.09
2024-01-08T07:16:53.498Z,30.16
2024-01-08T07:19:22.932Z,30.45
2024-01-08T07:21:51.026Z,30.44
2024-01-08T07:24:20.092Z,30.28
2024-01-08T07:26:48.156Z,30.52
2024-01-08T07:29:16.239Z,30.85
2024-01-08T07:31:44.294Z,31.03
2024-01-08T07:34:12.351Z,30.32
2024-01-08T07:36:41.830Z,30.42
2024-01-08T07:39:09.818Z,30.60
2024-01-08T07:41:37.941Z,30.42
2024-01-08T07:44:06.259Z,30.26
2024-01-08T07:46:34.457Z,30.25
2024-01-08T07:49:02.485Z,30.41
2024-01-08T07:51:32.946Z,30.07
2024-01-08T07:54:03.477Z,30.42
2024-01-08T07:56:31.586Z,30.36
2024-01-08T07:59:03.484Z,30.57
2024-01-08T08:01:32.088Z,31.11
2024-01-08T08:04:03.117Z,31.15
2024-01-08T08:06:32.286Z,30.94
2024-01-08T08:09:00.705Z,30.55
2024-01-08T08:11:30.120Z,30.69
2024-01-08T08:13:58.207Z,30.88
2024-01-08T08:16:26.348Z,30.76
2024-01-08T08:18:54.502Z,31.35
2024-01-08T08:21:22.604Z,30.97
2024-01-08T08:23:51.534Z,30.96
2024-01-08T08:26:20.346Z,30.95
2024-01-08T08:28:49.926Z,30.97
2024-01-08T08:31:18.055Z,31.02
2024-01-08T08:33:46.064Z,31.00
2024-01-08T08:36:16.406Z,31.01
2024-01-08T08:38:45.560Z,31.44
2024-01-08T08:41:13.671Z,31.32
2024-01-08T08:43:41.744Z,31.30
2024-01-08T08:46:11.124Z,31.12
2024-01-08T08:48:39.223Z,31.15
2024-01-08T08:51:07.366Z,31.20
2024-01-08T08:53:38.820Z,31.20
2024-01-08T08:56:08.227Z,31.11
2024-01-08T08:58:36.255Z,31.30
2024-01-08T09:01:04.590Z,31.23
2024-01-08T09:03:36.269Z,31.04
2024-01-08T09:06:10.203Z,31.67
2024-01-08T09:08:38.448Z,31.19
2024-01-08T09:11:06.603Z,31.66
2024-01-08T09:13:34.689Z,31.55
2024-01-08T09:16:02.663Z,31.85
2024-01-08T09:18:34.643Z,31.86
2024-01-08T09:21:02.804Z,31.67
2024-01-08T09:23:30.996Z,32.63
2024-01-08T09:25:59.009Z,31.55
2024-01-08T09:28:27.093Z,31.67
2024-01-08T09:30:55.510Z,31.76
2024-01-08T09:33:23.683Z,31.39
2024-01-08T09:35:53.170Z,31.34
2024-01-08T09:38:21.801Z,31.69
2024-01-08T09:40:50.761Z,30.93
2024-01-08T09:43:20.289Z,30.80
2024-01-08T09:46:01.930Z,30.57
2024-01-08T09:48:31.239Z,30.78
2024-01-08T09:51:02.221Z,30.43
2024-01-08T09:53:31.861Z,30.48
2024-01-08T09:56:03.695Z,30.63
2024-01-08T09:58:31.796Z,30.48
2024-01-08T10:00:59.813Z,30.53
2024-01-08T10:03:30.577Z,30.68
2024-01-08T10:05:58.764Z,30.58
2024-01-08T10:08:32.117Z,30.51
2024-01-08T10:11:00.532Z,30.52
2024-01-08T10:13:28.945Z,30.24
2024-01-08T10:15:57.081Z,30.30
2024-01-08T10:18:27.355Z,30.77
2024-01-08T10:21:10.829Z,30.65
2024-01-08T10:23:40.554Z,30.74
2024-01-08T10:26:10.584Z,30.57
2024-01-08T10:28:39.838Z,30.53
2024-01-08T10:31:10.123Z,30.42
2024-01-08T10:33:38.841Z,30.70
2024-01-08T10:36:08.993Z,30.61
2024-01-08T10:38:37.451Z,30.27
2024-01-08T10:41:07.331Z,32.49
2024-01-08T10:43:35.518Z,33.64
2024-01-08T10:46:05.428Z,33.17
2024-01-08T10:48:41.513Z,32.50
2024-01-08T10:51:10.743Z,32.39
2024-01-08T10:53:46.480Z,32.17
2024-01-08T10:56:17.831Z,32.25
2024-01-08T10:58:54.024Z,32.27
2024-01-08T11:01:25.153Z,32.36
2024-01-08T11:03:53.596Z,32.71
2024-01-08T11:06:24.147Z,33.03
2024-01-08T11:08:52.363Z,32.68
2024-01-08T11:11:22.892Z,32.64
2024-01-08T11:13:51.697Z,32.75
2024-01-08T11:16:25.597Z,32.81
2024-01-08T11:18:53.817Z,32.65
2024-01-08T11:21:28.518Z,32.56
2024-01-08T11:24:00.263Z,32.66
2024-01-08T11:26:29.673Z,32.60
2024-01-08T11:29:07.124Z,32.73
2024-01-08T11:32:15.867Z,32.14
2024-01-08T11:34:58.985Z,32.13
2024-01-08T11:37:37.006Z,32.25
2024-01-08T11:40:24.068Z,32.66
2024-01-08T11:42:54.842Z,32.57
2024-01-08T11:45:23.031Z,32.50
2024-01-08T11:47:51.325Z,32.56
2024-01-08T11:50:19.994Z,32.57
2024-01-08T11:52:49.585Z,32.59
2024-01-08T11:55:18.426Z,32.28
2024-01-08T11:57:49.856Z,32.51
2024-01-08T12:00:21.410Z,33.25
2024-01-08T12:02:49.700Z,33.05
2024-01-08T12:05:21.772Z,32.10
2024-01-08T12:07:53.928Z,32.05
2024-01-08T12:10:22.622Z,31.38
2024-01-08T12:12:52.806Z,31.51
2024-01-08T12:15:22.790Z,31.10
2024-01-08T12:17:50.946Z,31.23
2024-01-08T12:20:19.253Z,30.74
2024-01-08T12:22:50.737Z,30.58
2024-01-08T12:25:18.810Z,30.58
2024-01-08T12:27:49.887Z,30.42
2024-01-08T12:30:18.363Z,30.41
2024-01-08T12:32:47.864Z,30.51
2024-01-08T12:35:19.046Z,31.25
2024-01-08T12:37:47.359Z,31.34
2024-01-08T12:40:19.783Z,30.37
2024-01-08T12:42:49.910Z,30.18
2024-01-08T12:45:22.023Z,30.34
2024-01-08T12:47:54.782Z,30.27
2024-01-08T12:50:23.188Z,30.28
2024-01-08T12:52:51.238Z,30.09
2024-01-08T12:55:19.199Z,29.92
2024-01-08T12:57:47.261Z,29.96
2024-01-08T13:00:15.852Z,29.86
2024-01-08T13:02:44.012Z,29.61
2024-01-08T13:05:15.050Z,29.82
2024-01-08T13:07:43.831Z,29.96
2024-01-08T13:10:12.098Z,29.29
2024-01-08T13:12:41.258Z,29.21
2024-01-08T13:15:10.107Z,29.56
2024-01-08T13:17:38.214Z,29.20
2024-01-08T13:20:21.493Z,29.41
2024-01-08T13:22:55.805Z,29.21
2024-01-08T13:25:24.658Z,29.35
2024-01-08T13:27:52.710Z,29.46
2024-01-08T13:30:21.604Z,29.32
2024-01-08T13:32:50.161Z,29.35
2024-01-08T13:35:18.619Z,29.01
2024-01-08T13:37:47.138Z,28.98
2024-01-08T13:40:16.618Z,28.53
2024-01-08T13:42:45.929Z,28.69
2024-01-08T13:45:14.032Z,28.91
2024-01-08T13:47:42.225Z,28.65
2024-01-08T13:50:11.246Z,28.48
2024-01-08T13:52:39.754Z,28.47
2024-01-08T13:55:10.853Z,28.25
2024-01-08T13:57:40.459Z,28.18
2024-01-08T14:00:09.440Z,28.16
2024-01-08T14:02:37.859Z,28.27
2024-01-08T14:05:07.852Z,27.99
2024-01-08T14:07:36.023Z,27.84
2024-01-08T14:10:04.066Z,27.78
2024-01-08T14:12:32.094Z,27.82
2024-01-08T14:15:01.582Z,27.80
2024-01-08T14:17:29.772Z,27.98
2024-01-08T14:19:58.069Z,27.82
2024-01-08T14:22:26.205Z,28.00
2024-01-08T14:24:54.177Z,29.58
2024-01-08T14:27:22.289Z,29.88
2024-01-08T14:29:51.709Z,30.42
2024-01-08T14:32:21.500Z,31.25
2024-01-08T14:34:49.610Z,31.15
2024-01-08T14:37:18.037Z,31.17
2024-01-08T14:39:46.526Z,31.02
2024-01-08T14:42:14.507Z,30.52
2024-01-08T14:44:42.662Z,30.25
2024-01-08T14:47:10.731Z,30.42
2024-01-08T14:49:40.542Z,30.39
2024-01-08T14:52:08.572Z,30.13
2024-01-08T14:54:38.702Z,29.70
2024-01-08T14:57:07.733Z,29.56
2024-01-08T14:59:42.728Z,29.50
2024-01-08T15:02:13.525Z,29.32
2024-01-08T15:04:42.911Z,29.27
2024-01-08T15:07:11.058Z,29.01
2024-01-08T15:09:39.069Z,29.02
2024-01-08T15:12:07.769Z,29.13
2024-01-08T15:14:35.845Z,28.79
2024-01-08T15:17:04.169Z,28.82
2024-01-08T15:19:32.258Z,28.71
2024-01-08T15:22:01.596Z,29.13
2024-01-08T15:24:30.585Z,28.90
2024-01-08T15:26:59.481Z,28.77
2024-01-08T15:29:27.444Z,28.89
2024-01-08T15:31:55.487Z,28.82
2024-01-08T15:34:23.437Z,28.54
2024-01-08T15:36:54.293Z,28.89
2024-01-08T15:39:24.051Z,28.93
2024-01-08T15:41:55.134Z,28.44
2024-01-08T15:44:23.261Z,28.83
2024-01-08T15:46:51.384Z,28.97
2024-01-08T15:49:19.844Z,28.57
2024-01-08T15:51:47.791Z,28.70
2024-01-08T15:54:15.851Z,28.57
2024-01-08T15:56:46.156Z,28.49
2024-01-08T15:59:14.441Z,28.50
2024-01-08T16:01:42.621Z,28.46
2024-01-08T16:04:10.877Z,28.44
2024-01-08T16:06:38.994Z,28.44
2024-01-08T16:09:07.343Z,28.46
2024-01-08T16:11:35.423Z,29.24
2024-01-08T16:14:04.914Z,29.13
2024-01-08T16:16:32.945Z,30.04
2024-01-08T16:19:01.222Z,29.79
2024-01-08T16:21:29.267Z,29.84
2024-01-08T16:24:05.981Z,31.46
2024-01-08T16:26:39.016Z,31.64
2024-01-08T16:29:10.206Z,32.30
2024-01-08T16:31:38.325Z,34.18
2024-01-08T16:34:06.476Z,33.17
2024-01-08T16:36:34.612Z,33.25
2024-01-08T16:39:02.753Z,32.78
2024-01-08T16:41:31.264Z,31.96
2024-01-08T16:44:01.608Z,31.73
2024-01-08T16:46:31.335Z,31.60
2024-01-08T16:48:59.529Z,31.71
2024-01-08T16:51:27.950Z,31.38
2024-01-08T16:53:55.960Z,31.15
2024-01-08T16:56:27.338Z,30.93
2024-01-08T16:58:56.024Z,31.21
2024-01-08T17:01:24.521Z,30.62
2024-01-08T17:03:56.683Z,30.63
2024-01-08T17:06:27.447Z,30.75
2024-01-08T17:09:02.728Z,30.77
2024-01-08T17:11:31.535Z,30.63
2024-01-08T17:14:02.025Z,30.77
2024-01-08T17:16:30.207Z,30.74
2024-01-08T17:18:59.687Z,30.59
2024-01-08T17:21:27.924Z,30.42
2024-01-08T17:23:56.010Z,30.46
2024-01-08T17:26:23.996Z,30.36
2024-01-08T17:28:56.080Z,30.39
2024-01-08T17:31:24.919Z,30.20
2024-01-08T17:33:55.150Z,30.17
2024-01-08T17:36:26.425Z,30.19
2024-01-08T17:38:54.593Z,30.16
2024-01-08T17:41:24.756Z,30.39
2024-01-08T17:43:53.114Z,30.01
2024-01-08T17:46:24.079Z,30.03
2024-01-08T17:48:54.280Z,30.48
2024-01-08T17:51:22.441Z,30.25
2024-01-08T17:53:54.378Z,30.10
2024-01-08T17:56:22.565Z,30.22
2024-01-08T17:58:51.802Z,30.21
2024-01-08T18:01:20.281Z,30.29
2024-01-08T18:03:48.548Z,30.43
2024-01-08T18:06:16.699Z,29.85
2024-01-08T18:08:44.873Z,30.13
2024-01-08T18:11:16.745Z,30.02
2024-01-08T18:13:47.265Z,29.86
2024-01-08T18:16:15.892Z,29.68
2024-01-08T18:18:43.941Z,29.57
2024-01-08T18:21:12.006Z,29.83
2024-01-08T18:23:40.747Z,29.67
2024-01-08T18:26:09.369Z,29.61
2024-01-08T18:28:39.444Z,29.52
2024-01-08T18:31:07.628Z,29.49
2024-01-08T18:33:36.519Z,29.58
2024-01-08T18:36:05.281Z,29.22
2024-01-08T18:38:33.935Z,29.52
2024-01-08T18:41:01.959Z,29.39
2024-01-08T18:43:29.939Z,29.19
2024-01-08T18:45:59.417Z,29.28
2024-01-08T18:48:28.755Z,29.26
2024-01-08T18:50:59.162Z,29.16
2024-01-08T18:53:31.595Z,29.33
2024-01-08T18:55:59.745Z,29.17
2024-01-08T18:58:27.712Z,29.25
2024-01-08T19:01:01.056Z,29.15
2024-01-08T19:03:30.489Z,28.91
2024-01-08T19:05:59.889Z,28.99
2024-01-08T19:08:29.520Z,29.13
2024-01-08T19:11:00.085Z,29.05
2024-01-08T19:13:28.634Z,29.08
2024-01-08T19:15:56.622Z,28.91
2024-01-08T19:18:29.325Z,28.70
2024-01-08T19:20:58.757Z,28.91
2024-01-08T19:23:27.011Z,29.02
2024-01-08T19:25:55.301Z,28.73
2024-01-08T19:28:23.326Z,28.74
2024-01-08T19:30:51.789Z,28.94
2024-01-08T19:33:20.257Z,28.70
2024-01-08T19:35:48.440Z,28.57
2024-01-08T19:38:17.974Z,28.78
2024-01-08T19:40:46.130Z,28.60
2024-01-08T19:43:16.940Z,28.50
2024-01-08T19:45:45.276Z,28.50
2024-01-08T19:48:13.831Z,28.60
2024-01-08T19:50:42.266Z,28.75
2024-01-08T19:53:10.445Z,28.69
2024-01-08T19:55:39.827Z,28.64
2024-01-08T19:58:08.018Z,28.51
2024-01-08T20:00:36.245Z,28.47
2024-01-08T20:03:04.450Z,28.50
2024-01-08T20:05:35.296Z,28.48
2024-01-08T20:08:03.630Z,28.35
2024-01-08T20:10:31.621Z,28.29
2024-01-08T20:13:01.917Z,28.42
2024-01-08T20:15:33.702Z,28.36
2024-01-08T20:18:04.185Z,28.11
2024-01-08T20:20:35.499Z,28.26
2024-01-08T20:23:08.744Z,28.32
2024-01-08T20:25:37.127Z,28.28
2024-01-08T20:28:07.172Z,28.37
2024-01-08T20:30:35.338Z,28.33
2024-01-08T20:33:04.221Z,28.39
2024-01-08T20:35:32.394Z,28.43
2024-01-08T20:38:00.379Z,28.14
2024-01-08T20:40:28.501Z,28.12
2024-01-08T20:42:56.639Z,27.89
2024-01-08T20:45:26.402Z,28.19
2024-01-08T20:47:55.378Z,28.11
2024-01-08T20:50:23.727Z,28.12
2024-01-08T20:52:54.568Z,28.23
2024-01-08T20:55:23.814Z,28.18
2024-01-08T20:57:54.936Z,28.66
2024-01-08T21:00:25.360Z,28.50
2024-01-08T21:02:53.957Z,28.91
2024-01-08T21:05:22.151Z,28.86
2024-01-08T21:07:53.022Z,28.54
2024-01-08T21:10:21.117Z,28.87
2024-01-08T21:12:51.193Z,28.92
2024-01-08T21:15:19.314Z,28.91
2024-01-08T21:17:48.788Z,28.77
2024-01-08T21:20:17.410Z,28.52
2024-01-08T21:22:45.543Z,28.52
2024-01-08T21:25:13.629Z,28.58
2024-01-08T21:27:45.223Z,28.56
2024-01-08T21:30:14.154Z,32.28
2024-01-08T21:32:42.281Z,29.81
2024-01-08T21:35:14.736Z,30.32
2024-01-08T21:37:45.533Z,29.87
2024-01-08T21:40:13.790Z,29.64
2024-01-08T21:42:44.698Z,29.75
2024-01-08T21:45:15.832Z,29.32
2024-01-08T21:47:44.090Z,29.56
2024-01-08T21:50:12.253Z,29.64
2024-01-08T21:52:41.621Z,29.57
2024-01-08T21:55:10.150Z,29.50
2024-01-08T21:57:38.119Z,29.53
2024-01-08T22:00:09.461Z,29.57
2024-01-08T22:02:37.705Z,29.30
2024-01-08T22:05:06.308Z,29.35
2024-01-08T22:07:35.987Z,29.50
2024-01-08T22:10:05.846Z,29.30
2024-01-08T22:12:37.335Z,29.60
2024-01-08T22:15:06.328Z,29.36
2024-01-08T22:17:37.057Z,29.05
2024-01-08T22:20:05.765Z,28.98
2024-01-08T22:22:33.864Z,29.15
2024-01-08T22:25:01.850Z,28.90
2024-01-08T22:27:31.236Z,29.02
2024-01-08T22:29:59.421Z,29.11
2024-01-08T22:32:28.050Z,29.00
2024-01-08T22:34:56.058Z,29.29
2024-01-08T22:37:24.133Z,29.10
2024-01-08T22:39:54.998Z,28.95
2024-01-08T22:42:22.984Z,28.96
2024-01-08T22:44:52.377Z,28.94
2024-01-08T22:47:20.460Z,28.97
2024-01-08T22:49:48.602Z,29.04
2024-01-08T22:52:16.655Z,29.00
2024-01-08T22:54:44.646Z,28.81
2024-01-08T22:57:12.637Z,28.83
2024-01-08T22:59:43.501Z,29.16
2024-01-08T23:02:13.125Z,28.75
2024-01-08T23:04:43.174Z,28.83
2024-01-08T23:07:11.243Z,29.02
2024-01-08T23:09:39.211Z,28.64
2024-01-08T23:12:08.042Z,28.91
2024-01-08T23:14:36.112Z,29.10
2024-01-08T23:17:04.438Z,29.02
2024-01-08T23:19:35.448Z,28.83
2024-01-08T23:22:03.535Z,28.84
2024-01-08T23:24:32.287Z,28.88
2024-01-08T23:27:02.024Z,28.58
2024-01-08T23:29:30.218Z,28.48
2024-01-08T23:31:58.128Z,28.74
2024-01-08T23:34:26.188Z,28.92
2024-01-08T23:36:55.818Z,28.54
2024-01-08T23:39:26.162Z,28.73
2024-01-08T23:41:54.287Z,28.55
2024-01-08T23:44:22.399Z,28.32
2024-01-08T23:46:59.163Z,28.21
2024-01-08T23:49:27.269Z,28.19
2024-01-08T23:51:56.697Z,27.92
2024-01-08T23:54:24.738Z,28.05
2024-01-08T23:56:52.832Z,28.11
2024-01-08T23:59:20.885Z,28.43
